createdAt,value
2019-03-23T00:00:57.815Z,19.15
2019-03-23T00:03:25.809Z,19.04
2019-03-23T00:05:53.812Z,18.90
2019-03-23T00:08:21.807Z,18.86
2019-03-23T00:10:49.811Z,18.96
2019-03-23T00:13:17.804Z,18.88
2019-03-23T00:15:45.798Z,18.73
2019-03-23T00:18:14.050Z,18.70
2019-03-23T00:20:42.191Z,18.61
2019-03-23T00:23:10.189Z,18.36
2019-03-23T00:25:38.155Z,18.30
2019-03-23T00:28:06.147Z,18.43
2019-03-23T00:30:34.352Z,18.61
2019-03-23T00:33:02.387Z,18.66
2019-03-23T00:35:30.386Z,18.61
2019-03-23T00:37:58.493Z,18.03
2019-03-23T00:40:30.545Z,18.36
2019-03-23T00:43:00.986Z,18.42
2019-03-23T00:45:28.974Z,18.37
2019-03-23T00:47:56.983Z,18.43
2019-03-23T00:50:24.957Z,18.41
2019-03-23T00:52:53.002Z,18.32
2019-03-23T00:55:21.146Z,18.15
2019-03-23T00:57:49.125Z,18.03
2019-03-23T01:00:17.106Z,18.20
2019-03-23T01:02:45.121Z,18.16
2019-03-23T01:05:13.099Z,18.25
2019-03-23T01:07:41.072Z,18.17
2019-03-23T01:10:09.237Z,17.92
2019-03-23T01:12:37.211Z,17.47
2019-03-23T01:15:05.652Z,17.33
2019-03-23T01:17:33.766Z,17.62
2019-03-23T01:20:01.771Z,17.67
2019-03-23T01:22:32.984Z,18.02
2019-03-23T01:25:00.970Z,17.81
2019-03-23T01:27:28.938Z,17.82
2019-03-23T01:29:56.959Z,17.59
2019-03-23T01:32:25.154Z,17.27
2019-03-23T01:34:53.154Z,17.80
2019-03-23T01:37:21.195Z,17.87
2019-03-23T01:39:49.195Z,17.55
2019-03-23T01:42:17.540Z,17.74
2019-03-23T01:44:45.536Z,17.69
2019-03-23T01:47:13.520Z,17.40
2019-03-23T01:49:41.528Z,17.42
2019-03-23T01:52:09.542Z,17.39
2019-03-23T01:54:37.521Z,17.32
2019-03-23T01:57:05.518Z,16.78
2019-03-23T01:59:33.514Z,17.34
2019-03-23T02:02:01.535Z,17.14
2019-03-23T02:04:30.750Z,17.32
2019-03-23T02:06:58.796Z,17.32
2019-03-23T02:09:26.787Z,17.20
2019-03-23T02:11:55.134Z,17.32
2019-03-23T02:14:23.118Z,17.28
2019-03-23T02:16:51.132Z,17.14
2019-03-23T02:19:19.240Z,17.22
2019-03-23T02:21:47.226Z,16.97
2019-03-23T02:24:15.284Z,16.80
2019-03-23T02:26:43.293Z,17.02
2019-03-23T02:29:11.285Z,16.97
2019-03-23T02:31:39.453Z,17.26
2019-03-23T02:34:07.759Z,17.13
2019-03-23T02:36:35.739Z,17.19
2019-03-23T02:39:04.884Z,16.72
2019-03-23T02:41:32.955Z,17.11
2019-03-23T02:44:05.075Z,17.48
2019-03-23T02:46:30.780Z,17.26
2019-03-23T02:48:58.760Z,16.90
2019-03-23T02:51:26.825Z,16.21
2019-03-23T02:53:54.838Z,16.91
2019-03-23T02:56:22.840Z,16.76
2019-03-23T02:58:50.824Z,17.04
2019-03-23T03:01:18.818Z,17.45
2019-03-23T03:03:46.806Z,17.25
2019-03-23T03:06:14.834Z,16.88
2019-03-23T03:08:42.924Z,16.95
2019-03-23T03:11:10.900Z,16.49
2019-03-23T03:13:39.110Z,16.51
2019-03-23T03:16:07.110Z,16.92
2019-03-23T03:18:35.078Z,16.62
2019-03-23T03:21:03.149Z,16.73
2019-03-23T03:23:31.124Z,17.05
2019-03-23T03:32:18.917Z,16.87
2019-03-23T03:34:46.933Z,16.78
2019-03-23T03:37:14.916Z,16.57
2019-03-23T03:39:42.956Z,16.43
2019-03-23T03:42:10.985Z,16.61
2019-03-23T03:44:39.036Z,16.70
2019-03-23T03:47:07.036Z,16.71
2019-03-23T03:49:35.030Z,15.64
2019-03-23T03:52:03.017Z,16.53
2019-03-23T03:54:31.023Z,16.38
2019-03-23T03:56:59.013Z,16.97
2019-03-23T03:59:26.999Z,16.73
2019-03-23T04:01:55.012Z,16.49
2019-03-23T04:04:31.859Z,16.10
2019-03-23T04:06:59.870Z,16.16
2019-03-23T04:09:28.096Z,16.17
2019-03-23T04:11:56.083Z,16.56
2019-03-23T04:14:24.102Z,16.27
2019-03-23T04:16:52.107Z,16.30
2019-03-23T04:19:20.129Z,16.32
2019-03-23T04:21:48.178Z,16.09
2019-03-23T04:24:16.155Z,16.61
2019-03-23T04:26:44.166Z,15.76
2019-03-23T04:29:12.227Z,16.61
2019-03-23T04:31:40.302Z,17.05
2019-03-23T04:34:08.340Z,17.17
2019-03-23T04:36:36.399Z,17.23
2019-03-23T04:39:05.521Z,17.21
2019-03-23T04:41:39.127Z,16.80
2019-03-23T04:44:07.154Z,16.77
2019-03-23T04:46:35.147Z,16.83
2019-03-23T04:49:03.156Z,16.58
2019-03-23T04:51:31.193Z,16.87
2019-03-23T04:53:59.345Z,16.72
2019-03-23T04:56:27.382Z,16.83
2019-03-23T04:58:55.702Z,16.33
2019-03-23T05:01:23.726Z,16.15
2019-03-23T05:03:51.815Z,16.26
2019-03-23T05:06:19.839Z,16.42
2019-03-23T05:08:47.882Z,16.41
2019-03-23T05:11:15.861Z,16.49
2019-03-23T05:13:43.863Z,16.06
2019-03-23T05:16:11.915Z,16.17
2019-03-23T05:18:42.007Z,15.84
2019-03-23T05:21:17.568Z,16.24
2019-03-23T05:23:45.904Z,16.66
2019-03-23T05:26:14.215Z,16.78
2019-03-23T05:28:43.202Z,16.48
2019-03-23T05:31:11.183Z,16.26
2019-03-23T05:33:39.254Z,16.39
2019-03-23T05:36:07.254Z,16.31
2019-03-23T05:38:44.027Z,15.88
2019-03-23T05:41:05.002Z,16.28
2019-03-23T05:43:33.527Z,16.60
2019-03-23T05:46:01.547Z,16.56
2019-03-23T05:48:29.577Z,16.48
2019-03-23T05:50:57.571Z,16.14
2019-03-23T05:53:25.597Z,16.59
2019-03-23T05:55:53.626Z,16.30
2019-03-23T05:58:29.309Z,16.53
2019-03-23T06:00:57.587Z,16.17
2019-03-23T06:03:25.774Z,16.30
2019-03-23T06:05:53.750Z,15.95
2019-03-23T06:08:21.732Z,16.31
2019-03-23T06:10:49.729Z,16.10
2019-03-23T06:13:18.002Z,16.07
2019-03-23T06:15:46.027Z,16.19
2019-03-23T06:18:14.510Z,16.44
2019-03-23T06:20:42.475Z,16.42
2019-03-23T06:23:10.460Z,16.43
2019-03-23T06:25:38.478Z,17.00
2019-03-23T06:28:06.500Z,17.03
2019-03-23T06:30:34.600Z,17.07
2019-03-23T06:33:02.590Z,17.51
2019-03-23T06:35:31.855Z,17.48
2019-03-23T06:37:59.919Z,17.48
2019-03-23T06:40:27.974Z,17.14
2019-03-23T06:45:25.169Z,16.49
2019-03-23T06:47:53.305Z,17.03
2019-03-23T06:50:21.369Z,17.56
2019-03-23T06:52:49.449Z,17.39
2019-03-23T06:55:17.494Z,17.27
2019-03-23T06:57:45.606Z,17.57
2019-03-23T07:00:13.657Z,17.22
2019-03-23T07:02:41.754Z,17.17
2019-03-23T07:05:09.916Z,17.65
2019-03-23T07:07:37.983Z,17.06
2019-03-23T07:10:07.216Z,16.66
2019-03-23T07:12:35.400Z,17.63
2019-03-23T07:15:03.605Z,17.85
2019-03-23T07:17:31.728Z,18.03
2019-03-23T07:19:59.790Z,17.83
2019-03-23T07:22:27.976Z,17.95
2019-03-23T07:24:56.146Z,17.88
2019-03-23T07:27:24.353Z,17.95
2019-03-23T07:29:53.371Z,17.88
2019-03-23T07:32:21.527Z,18.00
2019-03-23T07:34:49.688Z,18.22
2019-03-23T07:37:17.727Z,17.96
2019-03-23T07:39:45.841Z,18.05
2019-03-23T07:42:13.885Z,18.34
2019-03-23T07:44:42.003Z,18.28
2019-03-23T07:47:10.163Z,18.21
2019-03-23T07:49:38.678Z,18.44
2019-03-23T07:52:06.764Z,18.34
2019-03-23T07:54:35.103Z,18.50
2019-03-23T07:57:03.404Z,18.48
2019-03-23T08:02:41.622Z,18.77
2019-03-23T08:05:09.764Z,18.54
2019-03-23T08:07:38.010Z,18.45
2019-03-23T08:10:06.323Z,18.58
2019-03-23T08:12:35.540Z,18.36
2019-03-23T08:15:03.789Z,18.46
2019-03-23T08:17:32.060Z,17.96
2019-03-23T08:20:00.409Z,18.90
2019-03-23T08:22:28.614Z,18.89
2019-03-23T08:24:56.784Z,18.88
2019-03-23T08:27:25.982Z,18.67
2019-03-23T08:29:54.135Z,18.62
2019-03-23T08:32:23.674Z,18.72
2019-03-23T08:34:51.864Z,18.27
2019-03-23T08:37:20.114Z,18.24
2019-03-23T08:39:48.855Z,18.38
2019-03-23T08:42:16.994Z,18.32
2019-03-23T08:44:45.433Z,17.63
2019-03-23T08:47:14.792Z,18.29
2019-03-23T08:49:43.339Z,18.13
2019-03-23T08:52:11.589Z,18.13
2019-03-23T08:54:39.917Z,18.10
2019-03-23T08:57:08.017Z,18.24
2019-03-23T08:59:36.612Z,18.17
2019-03-23T09:02:04.753Z,18.39
2019-03-23T09:04:32.926Z,18.29
2019-03-23T09:07:01.338Z,18.23
2019-03-23T09:09:29.439Z,18.38
2019-03-23T09:11:57.578Z,18.45
2019-03-23T09:14:25.672Z,18.42
2019-03-23T09:23:27.050Z,18.52
2019-03-23T09:26:10.606Z,18.37
2019-03-23T09:29:08.887Z,18.34
2019-03-23T09:31:36.976Z,18.41
2019-03-23T09:34:05.062Z,18.14
2019-03-23T09:36:33.245Z,18.41
2019-03-23T09:39:01.557Z,17.94
2019-03-23T09:41:29.918Z,18.55
2019-03-23T09:43:58.062Z,18.43
2019-03-23T09:46:26.226Z,18.17
2019-03-23T09:48:54.533Z,18.44
2019-03-23T09:51:22.772Z,18.31
2019-03-23T09:53:51.138Z,18.28
2019-03-23T09:56:19.400Z,18.35
2019-03-23T09:58:48.208Z,18.42
2019-03-23T10:01:16.388Z,18.75
2019-03-23T10:03:44.668Z,18.51
2019-03-23T10:06:12.800Z,18.90
2019-03-23T10:08:40.993Z,18.93
2019-03-23T10:11:09.155Z,18.89
2019-03-23T10:13:37.345Z,18.74
2019-03-23T10:16:16.900Z,18.78
2019-03-23T10:18:45.016Z,18.99
2019-03-23T10:21:13.112Z,18.95
2019-03-23T10:23:44.363Z,18.85
2019-03-23T10:26:12.922Z,18.92
2019-03-23T10:28:41.321Z,19.07
2019-03-23T10:31:10.538Z,18.80
2019-03-23T10:33:39.922Z,18.99
2019-03-23T10:36:12.816Z,19.01
2019-03-23T10:38:43.316Z,19.06
2019-03-23T10:44:21.683Z,18.37
2019-03-23T10:46:49.781Z,19.11
2019-03-23T10:49:17.913Z,18.98
2019-03-23T10:51:46.145Z,19.18
2019-03-23T10:54:14.301Z,19.13
2019-03-23T10:56:42.488Z,18.98
2019-03-23T10:59:10.678Z,19.01
2019-03-23T11:01:38.953Z,19.04
2019-03-23T11:04:07.526Z,19.13
2019-03-23T11:06:35.918Z,18.97
2019-03-23T11:12:14.060Z,18.89
2019-03-23T11:14:42.310Z,18.90
2019-03-23T11:17:10.367Z,19.05
2019-03-23T11:19:38.479Z,18.92
2019-03-23T11:22:06.687Z,19.01
2019-03-23T11:24:34.790Z,18.90
2019-03-23T11:27:02.978Z,18.85
2019-03-23T11:29:31.070Z,19.06
2019-03-23T11:31:59.263Z,18.96
2019-03-23T11:34:27.359Z,18.93
2019-03-23T11:36:55.421Z,18.69
2019-03-23T11:39:23.565Z,19.03
2019-03-23T11:41:52.949Z,19.08
2019-03-23T11:44:22.018Z,19.11
2019-03-23T11:46:52.017Z,19.17
2019-03-23T11:49:20.412Z,19.15
2019-03-23T11:54:57.823Z,18.82
2019-03-23T11:57:25.808Z,19.00
2019-03-23T11:59:54.298Z,19.24
2019-03-23T12:02:22.316Z,19.14
2019-03-23T12:04:50.304Z,19.10
2019-03-23T12:07:18.295Z,19.04
2019-03-23T12:09:46.575Z,19.08
2019-03-23T12:12:14.593Z,19.09
2019-03-23T12:14:42.684Z,18.82
2019-03-23T12:17:10.676Z,18.68
2019-03-23T12:19:38.716Z,18.93
2019-03-23T12:22:08.974Z,19.04
2019-03-23T12:24:36.954Z,19.23
2019-03-23T12:27:04.982Z,19.22
2019-03-23T12:29:32.964Z,18.91
2019-03-23T12:32:00.958Z,19.11
2019-03-23T12:34:28.953Z,18.00
2019-03-23T12:36:56.962Z,18.68
2019-03-23T12:39:24.942Z,18.80
2019-03-23T12:41:52.932Z,18.92
2019-03-23T12:44:20.950Z,18.71
2019-03-23T12:46:48.988Z,19.07
2019-03-23T12:49:17.041Z,19.08
2019-03-23T12:51:45.164Z,19.26
2019-03-23T12:54:13.208Z,19.04
2019-03-23T12:56:41.206Z,18.96
2019-03-23T12:59:11.404Z,19.23
2019-03-23T13:01:43.902Z,19.19
2019-03-23T13:04:12.073Z,19.07
2019-03-23T13:06:40.361Z,18.99
2019-03-23T13:09:08.558Z,19.03
2019-03-23T13:11:36.637Z,19.16
2019-03-23T13:14:04.908Z,19.06
2019-03-23T13:16:33.292Z,19.22
2019-03-23T13:19:01.447Z,19.24
2019-03-23T13:21:29.805Z,19.23
2019-03-23T13:23:58.243Z,19.24
2019-03-23T13:26:26.347Z,19.22
2019-03-23T13:28:54.489Z,19.39
2019-03-23T13:31:22.636Z,19.25
2019-03-23T13:33:50.808Z,19.35
2019-03-23T13:36:18.943Z,19.35
2019-03-23T13:38:47.115Z,19.24
2019-03-23T13:41:15.254Z,19.24
2019-03-23T13:43:43.307Z,19.49
2019-03-23T13:46:11.418Z,19.35
2019-03-23T13:48:39.790Z,18.54
2019-03-23T13:51:07.862Z,19.40
2019-03-23T13:53:37.679Z,19.37
2019-03-23T13:56:05.733Z,19.55
2019-03-23T13:58:33.891Z,19.54
2019-03-23T14:01:02.025Z,19.32
2019-03-23T14:03:30.132Z,19.46
2019-03-23T14:05:58.184Z,19.61
2019-03-23T14:08:26.367Z,19.54
2019-03-23T14:10:54.520Z,19.44
2019-03-23T14:13:22.647Z,19.77
2019-03-23T14:15:50.824Z,19.68
2019-03-23T14:18:19.101Z,19.52
2019-03-23T14:20:47.264Z,19.44
2019-03-23T14:23:15.417Z,19.68
2019-03-23T14:25:43.558Z,19.85
2019-03-23T14:28:11.740Z,19.63
2019-03-23T14:30:39.896Z,19.54
2019-03-23T14:33:08.064Z,19.41
2019-03-23T14:35:36.303Z,19.51
2019-03-23T14:38:04.335Z,19.65
2019-03-23T14:40:32.397Z,19.57
2019-03-23T14:43:00.546Z,19.61
2019-03-23T14:45:28.693Z,19.56
2019-03-23T14:47:56.776Z,19.50
2019-03-23T14:50:24.809Z,19.50
2019-03-23T14:52:52.865Z,19.73
2019-03-23T14:55:21.064Z,19.72
2019-03-23T14:57:49.530Z,19.56
2019-03-23T15:00:23.348Z,19.44
2019-03-23T15:02:52.612Z,18.92
2019-03-23T15:05:21.557Z,19.45
2019-03-23T15:07:49.676Z,19.66
2019-03-23T15:10:17.816Z,19.73
2019-03-23T15:12:45.986Z,19.72
2019-03-23T15:15:14.186Z,19.61
2019-03-23T15:17:48.678Z,19.46
2019-03-23T15:20:12.251Z,19.17
2019-03-23T15:22:40.328Z,19.30
2019-03-23T15:25:08.685Z,19.21
2019-03-23T15:27:36.819Z,19.48
2019-03-23T15:30:05.263Z,19.15
2019-03-23T15:32:33.574Z,19.22
2019-03-23T15:35:01.680Z,19.20
2019-03-23T15:37:29.770Z,19.35
2019-03-23T15:39:57.990Z,19.12
2019-03-23T15:42:26.302Z,19.01
2019-03-23T15:44:54.482Z,18.83
2019-03-23T15:47:22.701Z,18.87
2019-03-23T15:49:50.775Z,19.06
2019-03-23T15:52:18.816Z,19.13
2019-03-23T15:54:49.601Z,19.23
2019-03-23T15:57:17.680Z,19.40
2019-03-23T15:59:45.783Z,18.97
2019-03-23T16:02:13.984Z,18.96
2019-03-23T16:04:42.109Z,19.30
2019-03-23T16:07:10.233Z,19.66
2019-03-23T16:09:38.546Z,19.68
2019-03-23T16:12:06.690Z,19.42
2019-03-23T16:14:36.048Z,19.13
2019-03-23T16:17:04.103Z,19.13
2019-03-23T16:19:33.303Z,19.56
2019-03-23T16:22:01.394Z,19.26
2019-03-23T16:24:29.515Z,19.13
2019-03-23T16:26:57.802Z,18.96
2019-03-23T16:29:25.858Z,19.06
2019-03-23T16:31:53.929Z,19.25
2019-03-23T16:34:27.910Z,19.57
2019-03-23T16:37:08.377Z,19.47
2019-03-23T16:39:37.034Z,19.37
2019-03-23T16:42:05.283Z,19.21
2019-03-23T16:44:38.888Z,19.06
2019-03-23T16:47:07.054Z,19.17
2019-03-23T16:49:35.256Z,19.46
2019-03-23T16:52:03.502Z,19.56
2019-03-23T16:54:32.137Z,19.32
2019-03-23T16:57:01.780Z,18.97
2019-03-23T16:59:29.756Z,18.87
2019-03-23T17:01:57.790Z,19.16
2019-03-23T17:04:25.942Z,19.29
2019-03-23T17:06:53.982Z,19.24
2019-03-23T17:09:21.961Z,19.35
2019-03-23T17:11:49.947Z,19.49
2019-03-23T17:14:17.995Z,19.42
2019-03-23T17:16:49.106Z,19.25
2019-03-23T17:19:22.359Z,19.01
2019-03-23T17:21:47.698Z,19.03
2019-03-23T17:24:16.174Z,18.58
2019-03-23T17:26:44.187Z,18.83
2019-03-23T17:29:13.190Z,18.88
2019-03-23T17:31:41.170Z,19.03
2019-03-23T17:34:09.258Z,18.82
2019-03-23T17:36:37.250Z,18.88
2019-03-23T17:39:06.018Z,18.83
2019-03-23T17:41:33.998Z,18.83
2019-03-23T17:44:02.000Z,18.67
2019-03-23T17:46:30.011Z,18.63
2019-03-23T17:48:58.023Z,17.67
2019-03-23T17:51:26.007Z,18.69
2019-03-23T17:53:58.587Z,18.64
2019-03-23T17:56:32.288Z,18.57
2019-03-23T17:59:00.739Z,18.64
2019-03-23T18:01:29.456Z,18.66
2019-03-23T18:03:57.575Z,18.28
2019-03-23T18:06:25.754Z,18.29
2019-03-23T18:08:53.778Z,18.26
2019-03-23T18:11:21.842Z,18.35
2019-03-23T18:13:50.880Z,18.15
2019-03-23T18:16:20.034Z,18.16
2019-03-23T18:18:48.184Z,18.24
2019-03-23T18:21:16.179Z,18.18
2019-03-23T18:23:44.562Z,18.07
2019-03-23T18:26:12.588Z,18.53
2019-03-23T18:28:40.638Z,18.58
2019-03-23T18:31:08.654Z,18.58
2019-03-23T18:33:39.215Z,18.64
2019-03-23T18:36:07.515Z,18.58
2019-03-23T18:38:35.556Z,18.55
2019-03-23T18:41:03.558Z,18.53
2019-03-23T18:43:31.608Z,18.58
2019-03-23T18:45:59.636Z,18.77
2019-03-23T18:48:27.618Z,18.74
2019-03-23T18:50:55.648Z,18.60
2019-03-23T18:53:24.215Z,18.04
2019-03-23T18:55:52.285Z,18.10
2019-03-23T18:58:20.275Z,17.88
2019-03-23T19:00:48.306Z,17.72
2019-03-23T19:03:16.308Z,17.62
2019-03-23T19:05:44.599Z,17.97
2019-03-23T19:08:12.944Z,17.99
2019-03-23T19:10:40.949Z,18.09
2019-03-23T19:13:13.299Z,18.19
2019-03-23T19:15:43.734Z,18.22
2019-03-23T19:18:11.756Z,18.06
2019-03-23T19:20:39.732Z,18.00
2019-03-23T19:23:07.707Z,17.56
2019-03-23T19:25:35.709Z,17.71
2019-03-23T19:28:03.703Z,17.27
2019-03-23T19:30:31.750Z,17.45
2019-03-23T19:32:59.824Z,17.33
2019-03-23T19:35:27.795Z,16.89
2019-03-23T19:37:55.805Z,16.08
2019-03-23T19:40:23.814Z,17.09
2019-03-23T19:42:51.903Z,17.10
2019-03-23T19:45:19.890Z,16.99
2019-03-23T19:47:47.931Z,16.56
2019-03-23T19:50:17.152Z,17.02
2019-03-23T19:52:45.228Z,16.63
2019-03-23T19:55:13.226Z,16.72
2019-03-23T19:57:41.290Z,16.73
2019-03-23T20:00:09.399Z,16.75
2019-03-23T20:02:37.403Z,16.90
2019-03-23T20:05:05.551Z,16.89
2019-03-23T20:07:33.579Z,17.08
2019-03-23T20:10:01.688Z,17.01
2019-03-23T20:12:29.664Z,16.85
2019-03-23T20:14:57.670Z,16.75
2019-03-23T20:17:25.742Z,15.84
2019-03-23T20:19:53.778Z,16.51
2019-03-23T20:22:21.779Z,16.45
2019-03-23T20:24:49.798Z,16.84
2019-03-23T20:27:17.810Z,17.19
2019-03-23T20:29:51.808Z,17.42
2019-03-23T20:32:20.251Z,17.23
2019-03-23T20:34:48.236Z,17.08
2019-03-23T20:37:16.219Z,17.05
2019-03-23T20:39:44.254Z,16.64
2019-03-23T20:42:12.282Z,16.88
2019-03-23T20:44:40.362Z,16.80
2019-03-23T20:47:08.494Z,17.04
2019-03-23T20:49:36.638Z,16.33
2019-03-23T20:52:04.686Z,16.56
2019-03-23T20:54:32.667Z,16.66
2019-03-23T20:57:00.682Z,16.44
2019-03-23T20:59:28.692Z,16.35
2019-03-23T21:01:56.734Z,15.86
2019-03-23T21:04:24.769Z,16.21
2019-03-23T21:06:52.792Z,16.33
2019-03-23T21:09:20.811Z,15.93
2019-03-23T21:11:54.182Z,16.47
2019-03-23T21:14:22.234Z,16.03
2019-03-23T21:16:50.235Z,16.42
2019-03-23T21:19:18.214Z,16.39
2019-03-23T21:21:46.252Z,16.40
2019-03-23T21:24:14.222Z,16.04
2019-03-23T21:26:42.258Z,16.76
2019-03-23T21:29:10.239Z,16.63
2019-03-23T21:31:38.227Z,16.49
2019-03-23T21:34:06.210Z,16.42
2019-03-23T21:36:34.246Z,16.67
2019-03-23T21:39:02.278Z,16.71
2019-03-23T21:41:30.291Z,16.35
2019-03-23T21:43:58.305Z,16.63
2019-03-23T21:46:26.363Z,16.32
2019-03-23T21:48:54.358Z,16.31
2019-03-23T21:51:24.147Z,16.33
2019-03-23T21:53:53.203Z,16.28
2019-03-23T21:56:21.257Z,16.37
2019-03-23T21:58:49.350Z,16.44
2019-03-23T22:01:17.343Z,16.98
2019-03-23T22:03:45.355Z,17.14
2019-03-23T22:06:13.401Z,17.12
2019-03-23T22:08:41.620Z,17.14
2019-03-23T22:11:09.679Z,17.28
2019-03-23T22:13:37.699Z,17.01
2019-03-23T22:16:05.718Z,17.10
2019-03-23T22:18:33.734Z,17.20
2019-03-23T22:21:01.755Z,17.36
2019-03-23T22:23:29.806Z,17.07
2019-03-23T22:25:57.814Z,17.21
2019-03-23T22:28:25.843Z,17.38
2019-03-23T22:30:53.917Z,17.49
2019-03-23T22:33:28.060Z,17.44
2019-03-23T22:35:56.211Z,17.51
2019-03-23T22:38:24.197Z,17.76
2019-03-23T22:40:52.179Z,17.60
2019-03-23T22:43:20.163Z,17.09
2019-03-23T22:45:48.201Z,16.80
2019-03-23T22:48:16.214Z,16.70
2019-03-23T22:50:44.318Z,16.16
2019-03-23T22:53:12.345Z,16.88
2019-03-23T22:55:40.347Z,16.71
2019-03-23T22:58:08.378Z,16.76
2019-03-23T23:00:54.545Z,16.45
2019-03-23T23:03:41.036Z,17.00
2019-03-23T23:06:19.551Z,17.12
2019-03-23T23:08:46.802Z,17.21
2019-03-23T23:11:14.798Z,16.98
2019-03-23T23:13:42.799Z,16.73
2019-03-23T23:16:10.772Z,16.41
2019-03-23T23:18:38.895Z,16.63
2019-03-23T23:21:06.894Z,17.01
2019-03-23T23:23:35.445Z,17.05
2019-03-23T23:26:03.622Z,17.04
2019-03-23T23:28:31.688Z,17.00
2019-03-23T23:30:59.790Z,17.15
2019-03-23T23:33:31.552Z,16.62
2019-03-23T23:35:59.546Z,16.77
2019-03-23T23:38:27.545Z,16.75
2019-03-23T23:40:55.539Z,16.99
2019-03-23T23:43:23.546Z,16.98
2019-03-23T23:45:51.595Z,17.03
2019-03-23T23:48:19.870Z,17.22
2019-03-23T23:50:47.854Z,17.23
2019-03-23T23:53:15.923Z,17.51
2019-03-23T23:55:43.918Z,17.42
2019-03-23T23:58:11.918Z,17.09
